Schulte, Kansas
Current Conditions -  °F | °C
As of 6:53 PM on Monday 22 Dec 2014 (Local Time) from KICT Reporting Station
Scattered Clouds Scattered Clouds  
Wind Chill: 34°   Ceiling: Unl
Heat Index: 39°   Visibility: 10mi
Dew Point: 32°   Wind: 7mph
Humidity: 76%   Direction: 260°W
Pressure: 29.59"   Gusts: NA
Location:  37.6181°N, 97.4387°W
Report Text: KICT 230053Z 26006KT 10SM FEW040 FEW070 SCT200 04/00 A2959 RMK AO2 SLP024 T00390000
Loading
Personal Weather Stations






























Interactive Weather Map New forecast layout! Learn more

10-Day Weather Forecast

Advertisements
Track Severe Weather on mobile